createdAt,value
2019-05-17T00:00:17.237Z,54.01
2019-05-17T00:01:21.460Z,54.36
2019-05-17T00:02:26.646Z,53.98
2019-05-17T00:03:30.965Z,54.77
2019-05-17T00:04:36.407Z,54.76
2019-05-17T00:05:40.647Z,54.95
2019-05-17T00:06:47.467Z,54.79
2019-05-17T00:07:51.356Z,55.02
2019-05-17T00:08:56.503Z,54.97
2019-05-17T00:10:00.740Z,54.83
2019-05-17T00:11:06.666Z,54.83
2019-05-17T00:12:11.000Z,54.99
2019-05-17T00:13:17.414Z,54.96
2019-05-17T00:14:21.796Z,55.07
2019-05-17T00:15:27.310Z,55.38
2019-05-17T00:16:31.598Z,55.21
2019-05-17T00:17:37.817Z,55.32
2019-05-17T00:18:42.054Z,55.53
2019-05-17T00:19:46.827Z,55.43
2019-05-17T00:20:51.147Z,55.76
2019-05-17T00:21:56.640Z,55.71
2019-05-17T00:23:01.085Z,55.57
2019-05-17T00:24:06.677Z,55.73
2019-05-17T00:25:11.235Z,55.85
2019-05-17T00:26:16.511Z,56.07
2019-05-17T00:27:20.733Z,56.23
2019-05-17T00:28:26.883Z,56.00
2019-05-17T00:29:32.125Z,56.02
2019-05-17T00:30:37.568Z,56.18
2019-05-17T00:31:41.775Z,56.37
2019-05-17T00:32:47.607Z,56.26
2019-05-17T00:33:51.997Z,56.38
2019-05-17T00:34:56.843Z,56.36
2019-05-17T00:36:01.037Z,56.25
2019-05-17T00:37:07.000Z,56.11
2019-05-17T00:38:12.394Z,56.15
2019-05-17T00:39:17.117Z,56.11
2019-05-17T00:40:21.293Z,56.23
2019-05-17T00:41:26.977Z,56.11
2019-05-17T00:42:31.204Z,56.04
2019-05-17T00:43:36.912Z,56.38
2019-05-17T00:44:41.148Z,56.29
2019-05-17T00:45:46.807Z,56.40
2019-05-17T00:46:51.453Z,56.10
2019-05-17T00:47:57.294Z,56.33
2019-05-17T00:49:01.603Z,56.48
2019-05-17T00:50:07.567Z,56.37
2019-05-17T00:51:11.837Z,56.38
2019-05-17T00:52:16.877Z,56.37
2019-05-17T00:53:21.189Z,56.48
2019-05-17T00:54:26.903Z,56.35
2019-05-17T00:55:31.173Z,56.58
2019-05-17T00:56:37.186Z,56.37
2019-05-17T00:57:41.606Z,56.48
2019-05-17T00:58:47.747Z,56.46
2019-05-17T00:59:51.986Z,56.30
2019-05-17T01:00:58.480Z,56.52
2019-05-17T01:02:02.600Z,56.57
2019-05-17T01:03:08.596Z,56.60
2019-05-17T01:04:12.765Z,56.56
2019-05-17T01:05:17.781Z,56.74
2019-05-17T01:06:22.025Z,56.59
2019-05-17T01:07:27.052Z,56.52
2019-05-17T01:08:31.247Z,56.67
2019-05-17T01:09:36.637Z,56.50
2019-05-17T01:10:41.020Z,55.81
2019-05-17T01:11:47.432Z,56.53
2019-05-17T01:12:51.952Z,56.50
2019-05-17T01:13:58.653Z,56.52
2019-05-17T01:15:03.456Z,56.44
2019-05-17T01:16:08.291Z,56.42
2019-05-17T01:17:12.492Z,56.50
2019-05-17T01:18:17.319Z,56.39
2019-05-17T01:19:21.729Z,56.28
2019-05-17T01:20:27.714Z,56.42
2019-05-17T01:21:32.021Z,56.38
2019-05-17T01:22:36.937Z,56.38
2019-05-17T01:23:41.135Z,56.01
2019-05-17T01:24:46.331Z,55.98
2019-05-17T01:25:51.651Z,56.50
2019-05-17T01:26:57.428Z,56.59
2019-05-17T01:28:02.627Z,56.62
2019-05-17T01:29:07.588Z,56.43
2019-05-17T01:30:11.892Z,56.35
2019-05-17T01:31:17.268Z,56.35
2019-05-17T01:32:21.606Z,56.44
2019-05-17T01:33:28.049Z,56.16
2019-05-17T01:34:32.225Z,56.37
2019-05-17T01:35:37.608Z,56.52
2019-05-17T01:36:42.056Z,56.51
2019-05-17T01:37:47.514Z,56.52
2019-05-17T01:38:51.906Z,56.50
2019-05-17T01:39:57.359Z,56.61
2019-05-17T01:41:01.587Z,56.61
2019-05-17T01:42:07.746Z,56.43
2019-05-17T01:43:12.015Z,56.49
2019-05-17T01:44:16.910Z,56.27
2019-05-17T01:45:21.262Z,56.42
2019-05-17T01:46:26.495Z,56.48
2019-05-17T01:47:30.794Z,56.55
2019-05-17T01:48:36.601Z,56.13
2019-05-17T01:49:40.872Z,56.31
2019-05-17T01:50:46.461Z,56.29
2019-05-17T01:51:50.765Z,56.20
2019-05-17T01:52:56.733Z,56.48
2019-05-17T01:54:00.999Z,56.47
2019-05-17T01:55:08.889Z,56.43
2019-05-17T01:56:13.217Z,56.46
2019-05-17T01:57:18.017Z,56.47
2019-05-17T01:58:22.519Z,56.20
2019-05-17T01:59:27.251Z,56.23
2019-05-17T02:00:31.466Z,56.35
2019-05-17T02:01:37.081Z,56.23
2019-05-17T02:02:43.146Z,56.26
2019-05-17T02:03:47.953Z,56.49
2019-05-17T02:04:52.827Z,56.37
2019-05-17T02:05:57.623Z,56.37
2019-05-17T02:07:01.902Z,56.18
2019-05-17T02:08:07.100Z,56.27
2019-05-17T02:09:11.361Z,56.68
2019-05-17T02:10:16.937Z,56.60
2019-05-17T02:11:21.558Z,56.75
2019-05-17T02:12:26.841Z,56.44
2019-05-17T02:13:31.079Z,56.56
2019-05-17T02:14:37.637Z,56.33
2019-05-17T02:15:41.910Z,56.65
2019-05-17T02:16:46.875Z,56.60
2019-05-17T02:17:51.269Z,56.54
2019-05-17T02:18:57.328Z,56.39
2019-05-17T02:20:01.661Z,56.36
2019-05-17T02:21:06.754Z,56.28
2019-05-17T02:22:12.103Z,56.62
2019-05-17T02:23:17.405Z,56.71
2019-05-17T02:24:21.765Z,56.44
2019-05-17T02:25:27.304Z,56.80
2019-05-17T02:26:31.485Z,56.74
2019-05-17T02:27:41.183Z,57.08
2019-05-17T02:28:42.233Z,57.01
2019-05-17T02:29:47.137Z,57.06
2019-05-17T02:30:53.051Z,57.15
2019-05-17T02:31:57.801Z,57.03
2019-05-17T02:33:04.072Z,56.97
2019-05-17T02:34:09.618Z,57.03
2019-05-17T02:35:15.019Z,56.91
2019-05-17T02:36:22.616Z,57.01
2019-05-17T02:37:25.698Z,57.09
2019-05-17T02:38:33.358Z,57.04
2019-05-17T02:39:52.559Z,57.17
2019-05-17T02:40:43.282Z,56.95
2019-05-17T02:41:47.534Z,57.06
2019-05-17T02:42:53.911Z,56.81
2019-05-17T02:43:58.107Z,56.65
2019-05-17T02:45:03.560Z,57.15
2019-05-17T02:46:07.879Z,57.03
2019-05-17T02:47:13.321Z,57.12
2019-05-17T02:48:17.704Z,57.03
2019-05-17T02:49:23.520Z,56.96
2019-05-17T02:50:27.990Z,57.38
2019-05-17T02:51:32.732Z,57.33
2019-05-17T02:52:36.953Z,57.14
2019-05-17T02:53:43.008Z,57.41
2019-05-17T02:54:48.786Z,57.25
2019-05-17T02:55:54.107Z,57.22
2019-05-17T02:56:58.300Z,57.39
2019-05-17T02:58:03.699Z,57.47
2019-05-17T02:59:08.024Z,57.26
2019-05-17T03:00:13.634Z,57.16
2019-05-17T03:01:18.299Z,57.14
2019-05-17T03:02:27.700Z,57.07
2019-05-17T03:03:28.915Z,56.86
2019-05-17T03:04:33.810Z,57.08
2019-05-17T03:05:37.984Z,57.20
2019-05-17T03:06:43.829Z,57.00
2019-05-17T03:07:52.611Z,57.04
2019-05-17T03:08:56.110Z,57.18
2019-05-17T03:10:16.443Z,57.24
2019-05-17T03:11:06.700Z,57.11
2019-05-17T03:12:12.874Z,56.91
2019-05-17T03:13:18.147Z,57.21
2019-05-17T03:14:23.084Z,57.15
2019-05-17T03:15:27.904Z,57.32
2019-05-17T03:16:33.820Z,57.34
2019-05-17T03:17:38.809Z,57.46
2019-05-17T03:18:43.899Z,57.39
2019-05-17T03:19:52.931Z,57.22
2019-05-17T03:20:55.986Z,57.40
2019-05-17T03:22:04.438Z,57.46
2019-05-17T03:23:06.620Z,57.48
2019-05-17T03:24:13.770Z,57.47
2019-05-17T03:25:17.261Z,57.52
2019-05-17T03:26:23.174Z,57.60
2019-05-17T03:27:27.415Z,57.48
2019-05-17T03:28:34.310Z,57.48
2019-05-17T03:29:38.703Z,57.48
2019-05-17T03:30:46.604Z,57.45
2019-05-17T03:31:58.064Z,57.55
2019-05-17T03:32:57.027Z,57.53
2019-05-17T03:34:06.873Z,57.87
2019-05-17T03:35:08.075Z,58.04
2019-05-17T03:36:16.741Z,58.00
2019-05-17T03:37:18.931Z,58.03
2019-05-17T03:38:24.191Z,58.10
2019-05-17T03:39:29.068Z,57.86
2019-05-17T03:41:01.634Z,57.78
2019-05-17T03:41:42.630Z,58.17
2019-05-17T03:42:45.990Z,57.98
2019-05-17T03:43:53.248Z,57.89
2019-05-17T03:44:56.757Z,58.06
2019-05-17T03:46:02.652Z,58.38
2019-05-17T03:47:07.330Z,58.33
2019-05-17T03:48:12.951Z,58.37
2019-05-17T03:49:17.348Z,58.16
2019-05-17T03:50:22.810Z,57.95
2019-05-17T03:51:27.103Z,57.96
2019-05-17T03:52:33.279Z,58.07
2019-05-17T03:53:37.587Z,58.01
2019-05-17T03:54:42.998Z,58.13
2019-05-17T03:55:47.388Z,58.04
2019-05-17T03:56:53.291Z,58.07
2019-05-17T03:57:57.734Z,58.11
2019-05-17T03:59:03.700Z,58.05
2019-05-17T04:00:08.685Z,58.00
2019-05-17T04:01:14.218Z,58.25
2019-05-17T04:02:18.704Z,58.25
2019-05-17T04:03:23.609Z,58.32
2019-05-17T04:04:27.795Z,58.61
2019-05-17T04:05:33.670Z,58.51
2019-05-17T04:06:37.882Z,58.42
2019-05-17T04:07:43.461Z,58.42
2019-05-17T04:08:48.153Z,58.64
2019-05-17T04:09:53.447Z,58.58
2019-05-17T04:11:17.586Z,58.63
2019-05-17T04:12:08.229Z,58.59
2019-05-17T04:13:12.983Z,58.38
2019-05-17T04:14:17.961Z,58.79
2019-05-17T04:15:23.990Z,58.64
2019-05-17T04:16:28.638Z,58.67
2019-05-17T04:17:33.782Z,58.82
2019-05-17T04:18:38.591Z,58.97
2019-05-17T04:19:42.821Z,58.89
2019-05-17T04:20:47.617Z,58.76
2019-05-17T04:21:53.629Z,58.90
2019-05-17T04:23:03.466Z,58.81
2019-05-17T04:24:06.381Z,58.75
2019-05-17T04:25:13.478Z,58.72
2019-05-17T04:26:17.062Z,58.67
2019-05-17T04:27:22.933Z,58.64
2019-05-17T04:28:27.393Z,58.57
2019-05-17T04:29:33.342Z,58.69
2019-05-17T04:30:37.791Z,58.69
2019-05-17T04:31:43.682Z,58.62
2019-05-17T04:32:48.221Z,58.97
2019-05-17T04:33:53.758Z,58.69
2019-05-17T04:34:58.405Z,58.74
2019-05-17T04:36:03.241Z,58.76
2019-05-17T04:37:07.582Z,58.66
2019-05-17T04:38:13.008Z,58.46
2019-05-17T04:39:18.381Z,58.74
2019-05-17T04:40:23.386Z,58.71
2019-05-17T04:41:44.668Z,58.50
2019-05-17T04:42:34.152Z,58.67
2019-05-17T04:43:38.295Z,58.52
2019-05-17T04:44:43.363Z,58.53
2019-05-17T04:45:47.655Z,58.49
2019-05-17T04:46:53.567Z,58.70
2019-05-17T04:47:58.030Z,58.64
2019-05-17T04:49:03.225Z,58.65
2019-05-17T04:50:07.582Z,58.65
2019-05-17T04:51:13.127Z,58.50
2019-05-17T04:52:17.715Z,58.86
2019-05-17T04:53:23.321Z,58.71
2019-05-17T04:54:27.771Z,58.59
2019-05-17T04:55:34.301Z,58.35
2019-05-17T04:56:42.444Z,58.45
2019-05-17T04:57:45.948Z,58.46
2019-05-17T04:58:53.505Z,58.48
2019-05-17T04:59:56.568Z,58.65
2019-05-17T05:01:03.815Z,58.60
2019-05-17T05:02:07.360Z,58.62
2019-05-17T05:03:12.791Z,58.41
2019-05-17T05:04:17.702Z,58.81
2019-05-17T05:05:22.817Z,58.76
2019-05-17T05:06:27.947Z,58.70
2019-05-17T05:07:33.525Z,58.68
2019-05-17T05:08:38.498Z,58.57
2019-05-17T05:09:43.164Z,58.77
2019-05-17T05:10:47.989Z,58.72
2019-05-17T05:12:00.763Z,58.65
2019-05-17T05:12:59.061Z,58.82
2019-05-17T05:14:03.287Z,58.67
2019-05-17T05:15:08.078Z,58.71
2019-05-17T05:16:13.461Z,58.60
2019-05-17T05:17:18.538Z,58.57
2019-05-17T05:18:22.787Z,58.49
2019-05-17T05:19:27.533Z,58.77
2019-05-17T05:20:32.593Z,58.76
2019-05-17T05:21:37.490Z,58.88
2019-05-17T05:22:42.794Z,58.65
2019-05-17T05:23:47.806Z,58.66
2019-05-17T05:24:52.489Z,58.66
2019-05-17T05:25:57.286Z,58.93
2019-05-17T05:27:02.637Z,58.85
2019-05-17T05:28:07.469Z,58.89
2019-05-17T05:29:13.017Z,58.83
2019-05-17T05:30:17.799Z,58.86
2019-05-17T05:31:22.775Z,58.74
2019-05-17T05:32:27.641Z,58.96
2019-05-17T05:33:33.028Z,59.27
2019-05-17T05:34:38.145Z,59.41
2019-05-17T05:35:42.753Z,59.48
2019-05-17T05:36:48.625Z,59.25
2019-05-17T05:37:53.765Z,59.12
2019-05-17T05:38:58.503Z,58.97
2019-05-17T05:40:03.111Z,58.92
2019-05-17T05:41:07.903Z,59.00
2019-05-17T05:42:13.963Z,58.98
2019-05-17T05:43:18.561Z,59.21
2019-05-17T05:44:23.449Z,59.01
2019-05-17T05:45:28.181Z,59.08
2019-05-17T05:46:32.354Z,59.22
2019-05-17T05:47:37.110Z,59.35
2019-05-17T05:48:41.733Z,59.30
2019-05-17T05:49:46.497Z,59.31
2019-05-17T05:50:52.068Z,59.48
2019-05-17T05:51:56.959Z,59.46
2019-05-17T05:53:02.001Z,59.48
2019-05-17T05:54:06.848Z,59.36
2019-05-17T05:55:12.186Z,59.24
2019-05-17T05:56:17.289Z,59.08
2019-05-17T05:57:21.981Z,59.02
2019-05-17T05:58:26.865Z,59.18
2019-05-17T05:59:31.716Z,59.03
2019-05-17T06:00:37.642Z,58.97
2019-05-17T06:01:42.231Z,58.89
2019-05-17T06:02:47.085Z,58.90
2019-05-17T06:03:52.047Z,58.79
2019-05-17T06:04:57.663Z,58.72
2019-05-17T06:06:02.106Z,58.62
2019-05-17T06:07:06.957Z,58.47
2019-05-17T06:08:12.312Z,58.48
2019-05-17T06:09:17.373Z,58.41
2019-05-17T06:10:21.908Z,58.27
2019-05-17T06:11:26.674Z,58.45
2019-05-17T06:12:32.214Z,58.45
2019-05-17T06:13:37.061Z,58.44
2019-05-17T06:14:41.746Z,58.42
2019-05-17T06:15:46.740Z,58.30
2019-05-17T06:16:52.015Z,58.24
2019-05-17T06:17:58.022Z,58.13
2019-05-17T06:19:03.397Z,58.28
2019-05-17T06:20:08.308Z,59.48
2019-05-17T06:21:12.671Z,59.64
2019-05-17T06:22:17.399Z,59.23
2019-05-17T06:23:23.512Z,59.09
2019-05-17T06:24:28.041Z,58.83
2019-05-17T06:25:34.051Z,58.50
2019-05-17T06:26:39.159Z,58.33
2019-05-17T06:27:43.406Z,58.25
2019-05-17T06:28:48.134Z,58.21
2019-05-17T06:29:52.306Z,58.18
2019-05-17T06:30:58.515Z,57.99
2019-05-17T06:32:02.819Z,57.92
2019-05-17T06:33:07.621Z,57.79
2019-05-17T06:34:12.042Z,57.96
2019-05-17T06:35:16.773Z,58.01
2019-05-17T06:36:21.753Z,57.87
2019-05-17T06:37:26.640Z,57.77
2019-05-17T06:38:32.822Z,57.77
2019-05-17T06:39:37.794Z,57.75
2019-05-17T06:40:42.323Z,57.69
2019-05-17T06:41:47.175Z,57.81
2019-05-17T06:42:52.545Z,57.92
2019-05-17T06:43:57.319Z,58.31
2019-05-17T06:45:02.187Z,58.35
2019-05-17T06:46:07.186Z,58.34
2019-05-17T06:47:12.185Z,58.46
2019-05-17T06:48:16.912Z,58.56
2019-05-17T06:49:22.428Z,58.45
2019-05-17T06:50:27.190Z,58.31
2019-05-17T06:51:31.671Z,57.96
2019-05-17T06:52:36.470Z,57.94
2019-05-17T06:53:40.642Z,57.92
2019-05-17T06:54:45.385Z,58.01
2019-05-17T06:55:49.575Z,57.91
2019-05-17T06:56:54.376Z,58.00
2019-05-17T06:57:58.593Z,57.92
2019-05-17T06:59:03.475Z,57.68
2019-05-17T07:00:18.177Z,57.52
2019-05-17T07:01:15.772Z,57.07
2019-05-17T07:02:20.180Z,56.90
2019-05-17T07:03:25.014Z,56.74
2019-05-17T07:04:29.953Z,56.80
2019-05-17T07:05:36.875Z,57.09
2019-05-17T07:06:41.450Z,56.81
2019-05-17T07:07:46.188Z,56.73
2019-05-17T07:08:50.626Z,56.56
2019-05-17T07:10:00.667Z,56.57
2019-05-17T07:11:06.070Z,57.02
2019-05-17T07:12:10.952Z,56.63
2019-05-17T07:13:15.348Z,56.91
2019-05-17T07:14:20.391Z,56.92
2019-05-17T07:15:24.560Z,56.78
2019-05-17T07:16:30.073Z,56.30
2019-05-17T07:17:34.489Z,56.68
2019-05-17T07:18:39.970Z,57.25
2019-05-17T07:19:44.480Z,56.59
2019-05-17T07:20:50.206Z,56.58
2019-05-17T07:21:54.592Z,57.35
2019-05-17T07:23:00.469Z,57.11
2019-05-17T07:24:05.860Z,56.45
2019-05-17T07:25:25.370Z,56.30
2019-05-17T07:26:30.213Z,55.82
2019-05-17T07:27:41.549Z,56.36
2019-05-17T07:28:40.935Z,56.28
2019-05-17T07:29:45.663Z,55.90
2019-05-17T07:30:50.474Z,55.22
2019-05-17T07:31:55.247Z,55.11
2019-05-17T07:33:00.321Z,55.12
2019-05-17T07:34:05.400Z,54.59
2019-05-17T07:35:10.805Z,55.52
2019-05-17T07:36:19.598Z,56.10
2019-05-17T07:37:23.084Z,56.50
2019-05-17T07:38:30.040Z,55.89
2019-05-17T07:39:33.868Z,56.05
2019-05-17T07:40:39.860Z,55.13
2019-05-17T07:41:44.236Z,54.46
2019-05-17T07:42:50.137Z,54.48
2019-05-17T07:43:54.372Z,54.32
2019-05-17T07:45:00.584Z,54.02
2019-05-17T07:46:05.988Z,53.99
2019-05-17T07:47:11.022Z,53.93
2019-05-17T07:48:15.201Z,54.71
2019-05-17T07:49:20.111Z,54.45
2019-05-17T07:50:24.354Z,53.20
2019-05-17T07:51:30.096Z,53.43
2019-05-17T07:52:34.382Z,52.55
2019-05-17T07:53:40.037Z,53.03
2019-05-17T07:54:44.706Z,52.14
2019-05-17T07:55:50.586Z,52.83
2019-05-17T07:56:54.866Z,52.97
2019-05-17T07:58:00.211Z,52.32
2019-05-17T07:59:06.484Z,52.17
2019-05-17T08:00:11.336Z,51.94
2019-05-17T08:01:15.765Z,52.25
2019-05-17T08:02:20.493Z,52.12
2019-05-17T08:03:25.095Z,51.39
2019-05-17T08:04:30.140Z,51.58
2019-05-17T08:05:34.383Z,52.15
2019-05-17T08:06:40.329Z,51.34
2019-05-17T08:07:44.645Z,51.03
2019-05-17T08:08:50.298Z,51.14
2019-05-17T08:09:54.589Z,51.02
2019-05-17T08:11:00.312Z,51.08
2019-05-17T08:12:04.873Z,51.83
2019-05-17T08:13:24.746Z,51.75
2019-05-17T08:14:26.801Z,52.29
2019-05-17T08:15:21.983Z,51.36
2019-05-17T08:16:26.710Z,51.95
2019-05-17T08:17:31.481Z,52.41
2019-05-17T08:18:35.693Z,51.82
2019-05-17T08:19:40.526Z,51.98
2019-05-17T08:20:44.780Z,51.24
2019-05-17T08:21:50.227Z,51.24
2019-05-17T08:22:54.557Z,50.87
2019-05-17T08:24:00.126Z,50.74
2019-05-17T08:25:04.922Z,51.19
2019-05-17T08:26:10.710Z,50.48
2019-05-17T08:27:15.124Z,50.71
2019-05-17T08:28:21.613Z,51.28
2019-05-17T08:29:29.604Z,50.36
2019-05-17T08:30:33.646Z,50.17
2019-05-17T08:31:40.185Z,50.64
2019-05-17T08:32:44.464Z,50.19
2019-05-17T08:33:49.799Z,49.71
2019-05-17T08:34:54.731Z,49.81
2019-05-17T08:35:59.894Z,49.77
2019-05-17T08:37:05.262Z,49.56
2019-05-17T08:38:10.326Z,48.50
2019-05-17T08:39:15.267Z,48.57
2019-05-17T08:40:20.140Z,48.95
2019-05-17T08:41:24.963Z,48.82
2019-05-17T08:42:29.955Z,47.93
2019-05-17T08:43:45.113Z,47.71
2019-05-17T08:44:41.863Z,47.82
2019-05-17T08:45:46.627Z,47.64
2019-05-17T08:46:51.541Z,48.14
2019-05-17T08:47:56.279Z,47.56
2019-05-17T08:49:00.531Z,47.83
2019-05-17T08:50:11.236Z,48.31
2019-05-17T08:51:15.473Z,48.37
2019-05-17T08:52:20.279Z,48.65
2019-05-17T08:53:24.453Z,47.99
2019-05-17T08:54:31.467Z,47.96
2019-05-17T08:55:35.641Z,47.98
2019-05-17T08:56:40.547Z,47.29
2019-05-17T08:57:44.680Z,47.26
2019-05-17T08:58:49.871Z,45.98
2019-05-17T08:59:54.158Z,46.17
2019-05-17T09:01:00.252Z,46.71
2019-05-17T09:02:04.685Z,46.49
2019-05-17T09:03:10.645Z,46.50
2019-05-17T09:04:15.097Z,47.36
2019-05-17T09:05:21.111Z,47.29
2019-05-17T09:06:26.657Z,47.10
2019-05-17T09:07:31.393Z,47.11
2019-05-17T09:08:35.691Z,46.77
2019-05-17T09:09:40.432Z,47.04
2019-05-17T09:10:44.609Z,47.81
2019-05-17T09:11:50.141Z,48.17
2019-05-17T09:12:54.311Z,47.56
2019-05-17T09:14:01.957Z,47.12
2019-05-17T09:15:06.074Z,47.85
2019-05-17T09:16:10.992Z,48.14
2019-05-17T09:17:15.193Z,47.81
2019-05-17T09:18:20.608Z,48.49
2019-05-17T09:19:26.120Z,48.15
2019-05-17T09:20:30.895Z,47.46
2019-05-17T09:21:35.066Z,47.29
2019-05-17T09:22:40.050Z,46.43
2019-05-17T09:23:44.223Z,45.65
2019-05-17T09:24:49.992Z,45.37
2019-05-17T09:25:54.319Z,45.08
2019-05-17T09:26:59.850Z,45.25
2019-05-17T09:28:04.782Z,45.24
2019-05-17T09:29:10.772Z,44.60
2019-05-17T09:30:15.502Z,45.57
2019-05-17T09:31:20.573Z,45.20
2019-05-17T09:32:24.792Z,44.60
2019-05-17T09:33:30.258Z,43.61
2019-05-17T09:34:34.499Z,44.00
2019-05-17T09:35:40.799Z,44.84
2019-05-17T09:36:45.279Z,45.88
2019-05-17T09:37:50.045Z,45.04
2019-05-17T09:38:54.255Z,45.36
2019-05-17T09:39:59.816Z,44.67
2019-05-17T09:41:04.221Z,44.45
2019-05-17T09:42:10.337Z,43.99
2019-05-17T09:43:17.377Z,43.17
2019-05-17T09:44:22.161Z,43.72
2019-05-17T09:45:26.371Z,44.13
2019-05-17T09:46:31.102Z,43.95
2019-05-17T09:47:35.463Z,43.21
2019-05-17T09:48:40.265Z,43.38
2019-05-17T09:49:44.504Z,43.45
2019-05-17T09:50:50.480Z,43.58
2019-05-17T09:51:54.889Z,43.68
2019-05-17T09:53:00.075Z,43.04
2019-05-17T09:54:04.866Z,42.62
2019-05-17T09:55:10.035Z,42.69
2019-05-17T09:56:14.312Z,43.30
2019-05-17T09:57:20.501Z,43.12
2019-05-17T09:58:24.825Z,42.74
2019-05-17T09:59:29.881Z,42.66
2019-05-17T10:00:34.102Z,42.87
2019-05-17T10:01:39.493Z,42.08
2019-05-17T10:02:43.877Z,41.83
2019-05-17T10:03:50.643Z,41.87
2019-05-17T10:04:54.528Z,41.03
2019-05-17T10:05:59.996Z,41.22
2019-05-17T10:07:04.667Z,40.65
2019-05-17T10:08:10.886Z,40.16
2019-05-17T10:09:15.244Z,41.00
2019-05-17T10:10:20.373Z,40.91
2019-05-17T10:11:24.668Z,41.02
2019-05-17T10:12:29.471Z,41.54
2019-05-17T10:13:33.645Z,41.42
2019-05-17T10:14:38.379Z,41.49
2019-05-17T10:15:42.649Z,40.83
2019-05-17T10:16:47.397Z,41.03
2019-05-17T10:17:51.569Z,41.09
2019-05-17T10:18:56.400Z,40.68
2019-05-17T10:20:00.680Z,40.74
2019-05-17T10:21:05.638Z,40.25
2019-05-17T10:22:10.491Z,40.42
2019-05-17T10:23:15.361Z,40.80
2019-05-17T10:24:20.051Z,40.54
2019-05-17T10:25:25.989Z,40.42
2019-05-17T10:26:30.451Z,39.93
2019-05-17T10:27:35.364Z,40.37
2019-05-17T10:28:39.993Z,41.02
2019-05-17T10:29:44.849Z,40.42
2019-05-17T10:30:52.316Z,40.38
2019-05-17T10:31:55.450Z,40.67
2019-05-17T10:33:00.127Z,40.44
2019-05-17T10:34:05.105Z,40.07
2019-05-17T10:35:09.278Z,40.36
2019-05-17T10:36:14.142Z,40.67
2019-05-17T10:37:20.317Z,41.53
2019-05-17T10:38:24.991Z,41.34
2019-05-17T10:39:29.761Z,39.77
2019-05-17T10:40:34.636Z,39.82
2019-05-17T10:41:40.607Z,40.05
2019-05-17T10:42:45.278Z,39.43
2019-05-17T10:43:50.087Z,39.26
2019-05-17T10:44:55.036Z,39.36
2019-05-17T10:45:59.807Z,38.91
2019-05-17T10:47:05.244Z,38.92
2019-05-17T10:48:10.558Z,38.38
2019-05-17T10:49:16.224Z,38.39
2019-05-17T10:50:20.741Z,38.40
2019-05-17T10:51:25.497Z,38.39
2019-05-17T10:52:30.097Z,38.23
2019-05-17T10:53:34.911Z,38.67
2019-05-17T10:54:40.219Z,38.04
2019-05-17T10:55:46.053Z,37.32
2019-05-17T10:56:50.372Z,36.75
2019-05-17T10:57:55.024Z,37.19
2019-05-17T10:59:00.108Z,37.68
2019-05-17T11:00:06.759Z,37.79
2019-05-17T11:01:11.141Z,38.35
2019-05-17T11:02:15.878Z,38.92
2019-05-17T11:03:20.453Z,39.18
2019-05-17T11:04:25.280Z,39.46
2019-05-17T11:05:30.782Z,38.41
2019-05-17T11:06:35.639Z,37.94
2019-05-17T11:07:39.824Z,37.79
2019-05-17T11:08:44.523Z,37.36
2019-05-17T11:09:50.862Z,37.20
2019-05-17T11:10:56.199Z,37.15
2019-05-17T11:12:00.364Z,36.61
2019-05-17T11:13:05.154Z,37.07
2019-05-17T11:14:09.322Z,37.36
2019-05-17T11:15:14.409Z,37.27
2019-05-17T11:16:18.639Z,37.05
2019-05-17T11:17:23.360Z,36.92
2019-05-17T11:18:27.525Z,36.91
2019-05-17T11:19:32.466Z,36.87
2019-05-17T11:20:36.664Z,37.58
2019-05-17T11:21:41.427Z,38.49
2019-05-17T11:22:45.602Z,39.04
2019-05-17T11:23:50.319Z,38.74
2019-05-17T11:24:54.484Z,38.20
2019-05-17T11:25:59.254Z,38.79
2019-05-17T11:27:03.414Z,38.32
2019-05-17T11:28:09.102Z,38.39
2019-05-17T11:29:13.259Z,37.95
2019-05-17T11:30:18.082Z,36.64
2019-05-17T11:31:22.392Z,37.06
2019-05-17T11:32:27.121Z,37.50
2019-05-17T11:33:31.290Z,37.59
2019-05-17T11:34:36.040Z,37.64
2019-05-17T11:35:40.207Z,37.40
2019-05-17T11:36:44.961Z,36.39
2019-05-17T11:37:49.136Z,36.65
2019-05-17T11:38:53.856Z,36.51
2019-05-17T11:39:58.069Z,36.04
2019-05-17T11:41:19.920Z,36.32
2019-05-17T11:42:08.651Z,35.68
2019-05-17T11:43:13.376Z,35.40
2019-05-17T11:44:17.540Z,35.68
2019-05-17T11:45:27.831Z,36.55
2019-05-17T11:46:35.727Z,37.32
2019-05-17T11:47:34.564Z,36.96
2019-05-17T11:48:38.726Z,37.36
2019-05-17T11:49:43.447Z,37.22
2019-05-17T11:50:47.730Z,37.61
2019-05-17T11:51:52.525Z,35.61
2019-05-17T11:52:56.690Z,35.22
2019-05-17T11:54:01.407Z,35.51
2019-05-17T11:55:06.251Z,34.27
2019-05-17T11:56:11.098Z,35.18
2019-05-17T11:57:15.264Z,34.43
2019-05-17T11:58:19.994Z,34.17
2019-05-17T11:59:24.155Z,34.27
2019-05-17T12:00:28.875Z,34.59
2019-05-17T12:01:33.109Z,35.02
2019-05-17T12:02:37.832Z,35.85
2019-05-17T12:03:41.997Z,36.08
2019-05-17T12:04:46.806Z,36.18
2019-05-17T12:05:50.935Z,35.77
2019-05-17T12:06:55.741Z,35.44
2019-05-17T12:07:59.906Z,35.25
2019-05-17T12:09:06.192Z,35.59
2019-05-17T12:10:10.829Z,35.36
2019-05-17T12:11:15.539Z,34.68
2019-05-17T12:12:19.731Z,34.74
2019-05-17T12:13:24.447Z,34.94
2019-05-17T12:14:28.683Z,35.12
2019-05-17T12:15:44.430Z,33.89
2019-05-17T12:16:39.292Z,33.90
2019-05-17T12:17:44.026Z,33.92
2019-05-17T12:18:48.184Z,33.83
2019-05-17T12:19:52.929Z,34.24
2019-05-17T12:20:57.091Z,35.03
2019-05-17T12:22:01.988Z,34.73
2019-05-17T12:23:06.116Z,34.09
2019-05-17T12:24:10.839Z,34.87
2019-05-17T12:25:15.004Z,35.35
2019-05-17T12:26:19.725Z,35.11
2019-05-17T12:27:23.916Z,35.12
2019-05-17T12:28:28.708Z,35.11
2019-05-17T12:29:32.902Z,34.74
2019-05-17T12:30:38.600Z,34.42
2019-05-17T12:31:42.805Z,33.77
2019-05-17T12:32:47.607Z,33.96
2019-05-17T12:33:51.789Z,34.12
2019-05-17T12:34:56.502Z,34.01
2019-05-17T12:36:00.668Z,34.65
2019-05-17T12:37:05.833Z,34.29
2019-05-17T12:38:10.097Z,34.13
2019-05-17T12:39:14.788Z,34.46
2019-05-17T12:40:18.968Z,34.48
2019-05-17T12:41:23.703Z,34.55
2019-05-17T12:42:27.893Z,34.74
2019-05-17T12:43:32.922Z,34.97
2019-05-17T12:44:37.425Z,34.48
2019-05-17T12:45:42.116Z,34.10
2019-05-17T12:46:46.380Z,33.75
2019-05-17T12:47:51.070Z,33.90
2019-05-17T12:48:55.251Z,34.01
2019-05-17T12:49:59.994Z,34.34
2019-05-17T12:51:04.888Z,34.25
2019-05-17T12:52:09.638Z,34.14
2019-05-17T12:53:13.818Z,33.80
2019-05-17T12:54:18.536Z,34.14
2019-05-17T12:55:22.701Z,34.03
2019-05-17T12:56:27.422Z,34.05
2019-05-17T12:57:31.594Z,34.01
2019-05-17T12:58:36.349Z,34.00
2019-05-17T12:59:40.554Z,33.71
2019-05-17T13:00:45.299Z,33.75
2019-05-17T13:01:49.465Z,34.16
2019-05-17T13:02:54.185Z,34.74
2019-05-17T13:03:58.469Z,34.11
2019-05-17T13:05:03.198Z,34.13
2019-05-17T13:06:07.427Z,34.40
2019-05-17T13:07:12.156Z,34.59
2019-05-17T13:08:16.328Z,34.46
2019-05-17T13:09:21.163Z,34.57
2019-05-17T13:10:25.351Z,34.38
2019-05-17T13:11:30.073Z,34.11
2019-05-17T13:12:34.245Z,34.63
2019-05-17T13:13:38.968Z,34.83
2019-05-17T13:14:43.231Z,35.13
2019-05-17T13:15:48.018Z,35.16
2019-05-17T13:16:52.185Z,35.37
2019-05-17T13:17:56.928Z,35.66
2019-05-17T13:19:01.103Z,35.80
2019-05-17T13:20:10.196Z,35.84
2019-05-17T13:21:14.653Z,35.64
2019-05-17T13:22:19.457Z,35.62
2019-05-17T13:23:23.624Z,35.67
2019-05-17T13:24:29.385Z,35.51
2019-05-17T13:25:33.557Z,35.48
2019-05-17T13:26:38.311Z,35.54
2019-05-17T13:27:42.545Z,35.00
2019-05-17T13:28:47.287Z,34.94
2019-05-17T13:29:51.895Z,34.56
2019-05-17T13:30:56.559Z,34.53
2019-05-17T13:32:01.887Z,34.76
2019-05-17T13:33:06.700Z,34.41
2019-05-17T13:34:10.900Z,34.10
2019-05-17T13:35:15.674Z,34.27
2019-05-17T13:36:19.821Z,33.86
2019-05-17T13:37:24.540Z,33.93
2019-05-17T13:38:28.777Z,34.22
2019-05-17T13:39:33.591Z,34.51
2019-05-17T13:40:39.951Z,34.96
2019-05-17T13:41:44.247Z,34.82
2019-05-17T13:42:48.484Z,34.97
2019-05-17T13:43:53.213Z,35.29
2019-05-17T13:44:58.375Z,35.61
2019-05-17T13:46:03.116Z,35.62
2019-05-17T13:47:07.354Z,35.38
2019-05-17T13:48:12.072Z,35.49
2019-05-17T13:49:16.241Z,35.34
2019-05-17T13:50:20.983Z,34.83
2019-05-17T13:51:25.459Z,34.90
2019-05-17T13:52:30.216Z,34.77
2019-05-17T13:53:34.434Z,34.27
2019-05-17T13:54:39.140Z,34.42
2019-05-17T13:55:43.317Z,34.64
2019-05-17T13:56:48.101Z,34.64